Time;durP1;ratioP1;P1;durP2;ratioP2;P2;SDS_P1;SDS_P2;PMS_P1;PMS_P2;Temp;Humidity;BMP_temperature;BMP_pressure;BME280_temperature;BME280_humidity;BME280_pressure;Samples;Min_cycle;Max_cycle;Signal;HPM_P1;HPM_P2
2022/08/15 00:02:22;;;;;;;;;13.33;13.33;;;;;23.92;100.00;100283.97;5037888;28;61801;-73
2022/08/15 00:04:47;;;;;;;;;13.67;12.33;;;;;23.92;100.00;100270.50;5037767;28;55550;-72
2022/08/15 00:07:13;;;;;;;;;12.00;12.00;;;;;23.91;100.00;100281.34;5038110;28;61582;-75
2022/08/15 00:09:38;;;;;;;;;17.00;13.00;;;;;23.95;100.00;100278.41;5038988;28;46454;-72
2022/08/15 00:12:03;;;;;;;;;12.00;11.00;;;;;23.95;100.00;100278.41;5037873;28;63816;-73
2022/08/15 00:14:32;;;;;;;;;15.33;14.00;;;;;23.95;100.00;100277.53;5038692;28;45541;-75
2022/08/15 00:17:09;;;;;;;;;14.67;13.33;;;;;23.93;100.00;100274.91;5038761;28;45577;-72
2022/08/15 00:19:38;;;;;;;;;13.00;13.00;;;;;23.88;100.00;100273.44;5038642;28;46279;-74
2022/08/15 00:22:06;;;;;;;;;17.00;13.33;;;;;23.87;100.00;100269.00;5038698;28;45532;-73
2022/08/15 00:24:33;;;;;;;;;13.00;13.00;;;;;23.89;100.00;100267.94;5038527;28;45342;-72
2022/08/15 00:27:01;;;;;;;;;10.33;10.33;;;;;23.86;100.00;100275.31;5039108;28;46649;-73
2022/08/15 00:29:28;;;;;;;;;17.00;14.00;;;;;23.89;100.00;100273.34;5038648;28;45579;-72
2022/08/15 00:31:53;;;;;;;;;17.33;14.00;;;;;23.84;100.00;100267.31;5038489;28;45500;-72
2022/08/15 00:34:20;;;;;;;;;17.67;16.00;;;;;23.85;100.00;100271.75;5037485;28;55000;-72
2022/08/15 00:36:50;;;;;;;;;20.67;19.67;;;;;23.79;100.00;100272.06;5038677;28;45442;-71
2022/08/15 00:39:18;;;;;;;;;17.33;17.00;;;;;23.79;100.00;100274.78;5038081;28;46640;-73
2022/08/15 00:41:44;;;;;;;;;17.67;17.33;;;;;23.75;100.00;100270.47;5038494;28;45521;-74
2022/08/15 00:44:14;;;;;;;;;15.00;15.00;;;;;23.70;100.00;100265.38;5020488;28;45476;-72
2022/08/15 00:46:42;;;;;;;;;18.00;16.00;;;;;23.64;100.00;100257.56;5037934;28;45587;-74
2022/08/15 00:49:09;;;;;;;;;16.33;16.33;;;;;23.60;100.00;100252.41;5038507;28;47444;-75
2022/08/15 00:51:36;;;;;;;;;19.33;17.33;;;;;23.60;100.00;100266.75;5037884;28;46712;-74
2022/08/15 00:54:08;;;;;;;;;16.00;16.00;;;;;23.55;100.00;100258.03;5038580;28;45318;-72
2022/08/15 00:56:47;;;;;;;;;16.00;15.00;;;;;23.50;100.00;100257.41;5037967;28;45311;-72
2022/08/15 00:59:16;;;;;;;;;17.67;17.67;;;;;23.52;100.00;100267.13;5038101;28;46607;-72
2022/08/15 01:01:42;;;;;;;;;22.00;19.00;;;;;23.50;100.00;100260.97;5019701;28;45485;-75
2022/08/15 01:04:10;;;;;;;;;21.33;17.33;;;;;23.48;100.00;100267.38;5011778;28;45327;-74
2022/08/15 01:06:37;;;;;;;;;19.67;18.67;;;;;23.41;100.00;100266.81;5038171;28;45676;-72
2022/08/15 01:09:05;;;;;;;;;19.33;17.33;;;;;23.41;100.00;100266.81;5037269;28;46598;-72
2022/08/15 01:11:38;;;;;;;;;18.33;18.33;;;;;23.40;100.00;100273.16;5020351;28;45252;-72
2022/08/15 01:14:07;;;;;;;;;19.00;19.00;;;;;23.38;100.00;100266.97;5037440;28;45315;-72
2022/08/15 01:16:33;;;;;;;;;18.67;17.67;;;;;23.34;100.00;100264.53;5038503;28;45302;-72
2022/08/15 01:18:59;;;;;;;;;20.33;18.00;;;;;23.27;100.00;100258.56;5019621;28;46111;-75
2022/08/15 01:22:00;;;;;;;;;22.00;19.33;;;;;23.26;100.00;100264.91;5037000;28;64162;-72
2022/08/15 01:24:34;;;;;;;;;22.33;19.67;;;;;23.24;100.00;100266.81;5009507;28;45399;-72
2022/08/15 01:27:00;;;;;;;;;22.00;18.67;;;;;23.19;100.00;100260.78;5035005;28;45518;-72
2022/08/15 01:29:27;;;;;;;;;19.33;18.33;;;;;23.13;100.00;100256.56;5037780;28;46695;-72
2022/08/15 01:31:53;;;;;;;;;19.33;18.00;;;;;23.14;100.00;100266.41;5037030;28;45365;-73
2022/08/15 01:34:18;;;;;;;;;19.67;18.67;;;;;23.08;100.00;100264.00;5005451;28;52968;-75
2022/08/15 01:36:44;;;;;;;;;15.67;15.67;;;;;23.06;100.00;100260.50;5038064;28;45499;-72
2022/08/15 01:39:20;;;;;;;;;19.67;19.67;;;;;23.04;100.00;100269.63;5019239;28;47699;-71
2022/08/15 01:42:09;;;;;;;;;19.67;18.33;;;;;23.02;100.00;100258.94;5037256;28;45399;-72
2022/08/15 01:44:36;;;;;;;;;22.00;19.33;;;;;22.98;100.00;100258.19;5019022;28;45477;-74
2022/08/15 01:47:09;;;;;;;;;17.67;17.67;;;;;22.95;100.00;100262.84;5037180;28;45504;-74
2022/08/15 01:49:48;;;;;;;;;18.67;17.67;;;;;22.86;100.00;100252.53;5036991;28;45600;-72
2022/08/15 01:52:14;;;;;;;;;20.33;17.67;;;;;22.85;100.00;100257.03;5019354;28;45494;-72
2022/08/15 01:54:43;;;;;;;;;21.67;21.33;;;;;22.82;100.00;100249.09;5019508;28;45579;-71
2022/08/15 01:57:09;;;;;;;;;22.33;19.33;;;;;22.81;100.00;100257.25;5037449;28;45508;-72
2022/08/15 01:59:35;;;;;;;;;20.33;20.33;;;;;22.74;100.00;100238.72;5037327;28;46571;-73
2022/08/15 02:02:03;;;;;;;;;20.33;18.67;;;;;22.75;100.00;100244.97;5035696;28;69599;-72
2022/08/15 02:04:36;;;;;;;;;21.33;17.67;;;;;22.69;100.00;100234.47;5036730;28;45343;-73
2022/08/15 02:07:09;;;;;;;;;20.67;19.33;;;;;22.71;100.00;100244.25;5037354;28;45571;-72
2022/08/15 02:09:35;;;;;;;;;19.67;18.67;;;;;22.64;100.00;100239.25;5037095;28;45628;-72
2022/08/15 02:12:01;;;;;;;;;19.67;17.67;;;;;22.63;100.00;100254.50;5036703;28;45519;-72
2022/08/15 02:14:27;;;;;;;;;21.67;20.33;;;;;22.58;100.00;100251.16;5037086;28;45322;-72
2022/08/15 02:16:53;;;;;;;;;20.33;19.00;;;;;22.39;100.00;100218.88;5037290;28;46304;-71
2022/08/15 02:19:18;;;;;;;;;18.00;16.33;;;;;22.48;100.00;100237.28;5036663;28;51658;-71
2022/08/15 02:21:46;;;;;;;;;23.33;21.67;;;;;22.51;100.00;100241.63;5035827;28;45652;-72
2022/08/15 02:24:15;;;;;;;;;25.00;22.00;;;;;22.45;100.00;100236.56;5037016;28;45372;-71
2022/08/15 02:26:41;;;;;;;;;24.67;20.33;;;;;22.44;100.00;100234.81;5036919;28;45243;-72
2022/08/15 02:29:06;;;;;;;;;21.33;19.00;;;;;22.45;100.00;100237.41;5037075;28;48848;-72
2022/08/15 02:31:32;;;;;;;;;19.33;19.33;;;;;22.41;100.00;100226.88;5036085;28;45413;-73
2022/08/15 02:34:01;;;;;;;;;20.33;17.67;;;;;22.40;100.00;100225.13;5036619;28;45579;-73
2022/08/15 02:36:29;;;;;;;;;19.67;19.67;;;;;22.40;100.00;100220.63;5036917;28;45238;-72
2022/08/15 02:38:58;;;;;;;;;20.00;18.00;;;;;22.39;100.00;100226.97;5019535;28;46312;-73
2022/08/15 02:41:29;;;;;;;;;18.00;18.00;;;;;22.36;100.00;100218.16;5036194;28;45339;-75
2022/08/15 02:43:55;;;;;;;;;26.33;21.67;;;;;22.25;100.00;100210.59;5036451;28;45454;-71
2022/08/15 02:46:20;;;;;;;;;19.67;19.67;;;;;22.27;100.00;100219.47;5036277;28;45508;-72
2022/08/15 02:48:46;;;;;;;;;21.67;20.00;;;;;22.22;100.00;100217.00;5036234;28;46144;-76
2022/08/15 02:51:14;;;;;;;;;10.67;8.33;;;;;22.18;100.00;100222.59;5036395;28;45518;-75
2022/08/15 02:53:43;;;;;;;;;19.67;18.00;;;;;22.14;100.00;100212.91;5036473;28;45260;-73
2022/08/15 02:56:09;;;;;;;;;21.33;20.00;;;;;22.09;100.00;100205.03;5036813;28;45425;-73
2022/08/15 02:58:35;;;;;;;;;19.33;18.67;;;;;22.07;100.00;100212.28;5018472;28;46670;-73
2022/08/15 03:01:02;;;;;;;;;19.33;19.33;;;;;22.05;100.00;100211.50;5035133;28;66971;-72
2022/08/15 03:03:28;;;;;;;;;17.67;17.67;;;;;21.97;100.00;100200.22;5036101;28;45322;-72
2022/08/15 03:05:53;;;;;;;;;19.33;18.00;;;;;21.98;100.00;100216.28;5036052;28;45580;-74
2022/08/15 03:08:20;;;;;;;;;16.33;15.00;;;;;21.95;100.00;100212.88;5035718;28;64204;-73
2022/08/15 03:10:46;;;;;;;;;18.00;17.33;;;;;21.88;100.00;100209.56;5036077;28;45334;-72
2022/08/15 03:13:15;;;;;;;;;26.33;20.33;;;;;21.84;100.00;100208.00;5036366;28;45419;-73
2022/08/15 03:15:53;;;;;;;;;20.67;20.00;;;;;21.86;100.00;100216.84;5035742;28;46776;-72
2022/08/15 03:18:20;;;;;;;;;18.67;18.67;;;;;21.81;100.00;100210.78;5035520;28;46545;-72
2022/08/15 03:20:47;;;;;;;;;20.67;17.67;;;;;21.79;100.00;100209.13;5035925;28;45933;-73
2022/08/15 03:23:13;;;;;;;;;22.67;20.33;;;;;21.80;100.00;100205.50;5017802;28;45304;-72
2022/08/15 03:25:41;;;;;;;;;22.00;19.67;;;;;21.82;100.00;100198.22;5035507;28;45345;-72
2022/08/15 03:28:07;;;;;;;;;26.33;20.67;;;;;21.87;100.00;100213.19;5035679;28;45885;-72
2022/08/15 03:30:33;;;;;;;;;21.67;20.33;;;;;21.85;100.00;100201.66;5018655;28;45555;-72
2022/08/15 03:32:58;;;;;;;;;21.00;20.00;;;;;21.92;100.00;100211.19;5035001;28;60759;-74
2022/08/15 03:35:27;;;;;;;;;20.67;20.67;;;;;21.95;100.00;100207.50;5035477;28;45280;-72
2022/08/15 03:37:54;;;;;;;;;23.00;18.00;;;;;21.93;100.00;100199.47;5035798;28;45375;-72
2022/08/15 03:40:19;;;;;;;;;19.33;19.00;;;;;21.95;100.00;100202.13;5035101;28;45358;-73
2022/08/15 03:42:53;;;;;;;;;23.00;19.67;;;;;21.96;100.00;100196.66;5035141;28;61970;-72
2022/08/15 03:45:19;;;;;;;;;22.00;21.00;;;;;22.03;100.00;100208.00;5035537;28;45342;-72
2022/08/15 03:47:45;;;;;;;;;19.00;17.67;;;;;21.92;100.00;100184.28;5035412;28;46512;-74
2022/08/15 03:50:13;;;;;;;;;20.00;18.67;;;;;22.04;100.00;100206.19;5035529;28;45333;-73
2022/08/15 03:53:03;;;;;;;;;22.33;19.67;;;;;21.98;100.00;100194.75;5035679;28;45461;-72
2022/08/15 03:55:31;;;;;;;;;18.00;18.00;;;;;21.96;100.00;100191.28;5035769;28;45510;-72
2022/08/15 03:57:57;;;;;;;;;20.67;18.67;;;;;21.95;100.00;100197.59;5035496;28;45624;-71
2022/08/15 04:00:26;;;;;;;;;18.00;17.67;;;;;21.92;100.00;100186.13;5035300;28;45446;-71
2022/08/15 04:02:53;;;;;;;;;23.67;20.00;;;;;21.90;100.00;100191.56;5035366;28;45235;-72
2022/08/15 04:05:18;;;;;;;;;15.67;15.67;;;;;21.88;100.00;100187.19;5035717;28;45352;-72
2022/08/15 04:07:44;;;;;;;;;19.33;18.67;;;;;21.88;100.00;100180.00;5034197;28;68266;-72
2022/08/15 04:10:16;;;;;;;;;20.33;19.00;;;;;21.88;100.00;100190.75;5035346;28;45361;-72
2022/08/15 04:12:43;;;;;;;;;19.00;19.00;;;;;21.86;100.00;100181.91;5035582;28;45360;-72
2022/08/15 04:15:12;;;;;;;;;16.00;15.67;;;;;21.78;100.00;100173.31;5035493;28;45614;-71
2022/08/15 04:17:38;;;;;;;;;21.00;18.33;;;;;21.79;100.00;100182.25;5035131;28;46355;-72
2022/08/15 04:20:04;;;;;;;;;21.67;20.67;;;;;21.72;100.00;100187.03;5034507;28;45539;-72
2022/08/15 04:22:36;;;;;;;;;18.33;17.00;;;;;21.70;100.00;100192.47;5035485;28;45468;-72
2022/08/15 04:25:09;;;;;;;;;18.00;16.67;;;;;21.64;100.00;100184.69;5034750;28;45528;-74
2022/08/15 04:27:35;;;;;;;;;18.00;18.00;;;;;21.60;100.00;100176.84;5034822;28;46649;-72
2022/08/15 04:30:01;;;;;;;;;12.00;11.00;;;;;21.62;100.00;100181.19;5034394;28;45489;-72
2022/08/15 04:32:26;;;;;;;;;18.00;18.00;;;;;21.62;100.00;100183.00;5034804;28;45405;-72
2022/08/15 04:34:52;;;;;;;;;14.00;13.00;;;;;21.56;100.00;100178.78;5035157;28;45601;-72
2022/08/15 04:37:18;;;;;;;;;17.67;17.67;;;;;21.54;100.00;100171.75;5034719;28;46462;-71
2022/08/15 04:39:43;;;;;;;;;13.00;13.00;;;;;21.59;100.00;100185.84;5016423;28;45436;-71
2022/08/15 04:42:09;;;;;;;;;19.33;17.00;;;;;21.60;100.00;100182.22;5034402;28;60158;-72
2022/08/15 04:44:36;;;;;;;;;18.67;16.67;;;;;21.59;100.00;100175.09;5033753;28;45620;-72
2022/08/15 04:47:01;;;;;;;;;19.33;17.67;;;;;21.59;100.00;100185.84;5038545;28;47206;-72
2022/08/15 04:49:27;;;;;;;;;18.33;16.67;;;;;21.57;100.00;100188.59;5037408;28;51617;-73
2022/08/15 04:51:52;;;;;;;;;14.00;14.00;;;;;21.56;100.00;100180.59;5038631;28;45327;-72
2022/08/15 04:54:17;;;;;;;;;17.33;17.00;;;;;21.50;100.00;100179.06;5038300;28;46492;-72
2022/08/15 04:56:43;;;;;;;;;19.00;15.33;;;;;21.54;100.00;100180.66;5037838;28;45522;-72
2022/08/15 04:59:09;;;;;;;;;16.00;16.00;;;;;21.50;100.00;100184.44;5037297;28;45342;-73
2022/08/15 05:01:34;;;;;;;;;17.00;15.00;;;;;21.45;100.00;100168.50;5038209;28;45453;-72
2022/08/15 05:03:59;;;;;;;;;14.67;14.67;;;;;21.48;100.00;100163.97;5037484;28;61501;-75
2022/08/15 05:06:24;;;;;;;;;18.67;16.33;;;;;21.49;100.00;100168.38;5037719;28;51303;-72
2022/08/15 05:08:50;;;;;;;;;15.67;15.67;;;;;21.50;100.00;100162.06;5037008;28;62483;-72
2022/08/15 05:11:17;;;;;;;;;15.33;13.67;;;;;21.55;100.00;100168.09;5037496;28;55143;-71
2022/08/15 05:13:43;;;;;;;;;18.00;15.00;;;;;21.56;100.00;100169.84;5038256;28;45391;-71
2022/08/15 05:16:09;;;;;;;;;15.67;15.33;;;;;21.55;100.00;100162.72;5036816;28;45643;-73
2022/08/15 05:18:37;;;;;;;;;16.33;15.00;;;;;21.53;100.00;100152.06;5037686;28;45238;-74
2022/08/15 05:21:04;;;;;;;;;17.33;13.67;;;;;21.51;100.00;100139.63;5037941;28;45945;-72
2022/08/15 05:23:31;;;;;;;;;17.67;14.67;;;;;21.53;100.00;100148.50;5020289;28;45268;-71
2022/08/15 05:25:58;;;;;;;;;14.33;14.33;;;;;21.53;100.00;100159.25;5037046;28;46721;-73
2022/08/15 05:28:24;;;;;;;;;15.00;13.00;;;;;21.47;100.00;100152.34;5013991;28;45512;-71
2022/08/15 05:30:51;;;;;;;;;22.00;18.00;;;;;21.51;100.00;100153.94;5037182;28;45468;-74
2022/08/15 05:33:19;;;;;;;;;16.00;15.33;;;;;21.55;100.00;100146.63;5037168;28;45632;-72
2022/08/15 05:35:49;;;;;;;;;17.00;16.67;;;;;21.57;100.00;100147.41;5037554;28;45418;-73
2022/08/15 05:38:18;;;;;;;;;14.67;14.67;;;;;21.58;100.00;100150.03;5037180;28;45398;-75
2022/08/15 05:40:51;;;;;;;;;15.67;15.00;;;;;21.64;100.00;100148.91;5017785;28;45798;-72
2022/08/15 05:43:24;;;;;;;;;16.00;16.00;;;;;21.65;100.00;100146.13;4991423;28;45495;-73
2022/08/15 05:46:11;;;;;;;;;16.33;15.00;;;;;21.63;100.00;100139.09;5037176;28;46903;-72
2022/08/15 05:48:38;;;;;;;;;15.00;15.00;;;;;21.66;100.00;100145.19;5019337;28;45324;-76
2022/08/15 05:51:23;;;;;;;;;20.00;17.67;;;;;21.75;100.00;100154.66;5037225;28;45289;-73
2022/08/15 05:54:21;;;;;;;;;18.67;16.67;;;;;21.75;100.00;100134.97;5019263;28;45478;-72
2022/08/15 05:57:09;;;;;;;;;21.00;18.33;;;;;21.82;100.00;100152.53;5013611;28;46815;-72
2022/08/15 05:59:39;;;;;;;;;17.33;16.33;;;;;21.85;100.00;100161.34;5033634;28;45496;-75
2022/08/15 06:02:13;;;;;;;;;15.33;15.33;;;;;21.83;100.00;100151.59;5019525;28;45375;-72
2022/08/15 06:04:55;;;;;;;;;17.00;16.67;;;;;21.89;100.00;100162.94;5035379;28;45372;-72
2022/08/15 06:07:21;;;;;;;;;19.33;18.00;;;;;21.90;100.00;100164.69;5036881;28;46150;-75
2022/08/15 06:09:52;;;;;;;;;18.67;16.00;;;;;21.96;100.00;100171.59;5018114;28;69485;-72
2022/08/15 06:12:43;;;;;;;;;18.33;17.00;;;;;21.96;100.00;100164.41;5019295;28;45351;-73
2022/08/15 06:15:24;;;;;;;;;18.00;16.33;;;;;21.99;100.00;100160.69;5027757;28;45634;-73
2022/08/15 06:18:00;;;;;;;;;22.00;17.00;;;;;21.95;100.00;100157.28;5018820;28;46809;-72
2022/08/15 06:20:37;;;;;;;;;22.33;19.33;;;;;22.03;100.00;100158.72;5036863;28;45322;-74
2022/08/15 06:23:21;;;;;;;;;20.33;17.33;;;;;22.03;100.00;100153.34;5037129;28;45521;-72
2022/08/15 06:26:02;;;;;;;;;16.00;14.33;;;;;22.13;100.00;100165.47;5037110;28;45516;-74
2022/08/15 06:28:40;;;;;;;;;15.33;13.33;;;;;22.12;100.00;100140.38;5031012;28;46157;-73
2022/08/15 06:31:31;;;;;;;;;22.67;18.00;;;;;22.22;100.00;100154.28;5033954;28;46360;-73
2022/08/15 06:34:06;;;;;;;;;17.67;17.00;;;;;22.28;100.00;100155.78;5017118;28;45397;-71
2022/08/15 06:36:55;;;;;;;;;17.33;15.67;;;;;22.30;100.00;100153.88;5034260;28;45403;-70
2022/08/15 06:39:52;;;;;;;;;19.33;15.67;;;;;22.36;100.00;100161.66;5034350;28;46590;-74
2022/08/15 06:42:33;;;;;;;;;16.00;16.00;;;;;22.33;100.00;100151.06;4990223;28;45482;-73
2022/08/15 06:45:03;;;;;;;;;18.33;16.67;;;;;22.39;100.00;100153.47;5034342;28;45494;-72
2022/08/15 06:47:28;;;;;;;;;16.33;14.33;;;;;22.40;100.00;100153.38;5014032;28;47269;-71
2022/08/15 06:49:58;;;;;;;;;20.00;19.00;;;;;22.39;100.00;100146.25;5032221;28;45645;-74
2022/08/15 06:52:24;;;;;;;;;18.33;16.33;;;;;22.42;100.00;100139.84;5016906;28;46721;-71
2022/08/15 06:54:49;;;;;;;;;16.33;16.33;;;;;22.44;100.00;100144.22;5018235;28;45351;-71
2022/08/15 06:57:31;;;;;;;;;19.00;17.33;;;;;22.47;100.00;100149.41;5015632;28;61602;-73
2022/08/15 07:00:10;;;;;;;;;19.00;17.67;;;;;22.54;100.00;100158.09;5036444;28;45699;-72
2022/08/15 07:03:03;;;;;;;;;16.33;15.33;;;;;22.57;100.00;100157.91;5035342;28;45684;-70
2022/08/15 07:05:44;;;;;;;;;21.33;19.00;;;;;22.57;100.00;100157.06;5030819;28;45363;-71
2022/08/15 07:08:20;;;;;;;;;19.67;17.00;;;;;22.63;100.00;100159.44;5028980;28;45570;-74
2022/08/15 07:10:55;;;;;;;;;15.33;15.33;;;;;22.61;100.00;100153.28;5026691;28;46727;-72
2022/08/15 07:13:26;;;;;;;;;10.33;10.33;;;;;22.65;100.00;100147.66;5032609;28;45429;-70
2022/08/15 07:15:56;;;;;;;;;17.67;14.67;;;;;22.65;100.00;100152.19;5019135;28;45468;-72
2022/08/15 07:18:24;;;;;;;;;15.67;14.00;;;;;22.72;100.00;100156.28;5031236;28;46110;-72
2022/08/15 07:21:08;;;;;;;;;15.67;15.67;;;;;22.71;100.00;100146.47;5027727;28;45793;-73
2022/08/15 07:26:11;;;;;;;;;15.00;13.67;;;;;22.79;100.00;100163.09;4988921;25;45511;-71
2022/08/15 07:28:39;;;;;;;;;15.67;14.00;;;;;22.84;100.00;100169.13;5032538;28;46288;-71
2022/08/15 07:31:10;;;;;;;;;16.67;15.33;;;;;22.85;100.00;100161.91;5011541;28;45829;-72
2022/08/15 07:33:44;;;;;;;;;13.67;13.67;;;;;22.88;100.00;100156.44;5030093;28;45680;-69
2022/08/15 07:36:24;;;;;;;;;19.00;16.00;;;;;22.97;100.00;100167.59;5016616;28;45538;-70
2022/08/15 07:38:50;;;;;;;;;14.00;14.00;;;;;23.01;100.00;100171.03;5031565;28;45461;-74
2022/08/15 07:41:22;;;;;;;;;15.00;12.67;;;;;23.02;100.00;100163.81;5032071;28;47426;-70
2022/08/15 07:43:48;;;;;;;;;21.00;18.00;;;;;22.97;100.00;100151.47;5035456;28;45362;-69
2022/08/15 07:46:19;;;;;;;;;15.00;12.00;;;;;23.06;100.00;100162.69;5033984;28;45470;-70
2022/08/15 07:48:58;;;;;;;;;17.33;16.33;;;;;23.10;100.00;100165.16;5033638;28;45415;-69
2022/08/15 07:51:27;;;;;;;;;15.33;15.33;;;;;23.10;100.00;100150.81;5026231;28;46502;-71
2022/08/15 07:53:54;;;;;;;;;15.00;13.33;;;;;23.15;100.00;100155.00;5032990;28;46393;-70
2022/08/15 07:56:20;;;;;;;;;13.67;13.33;;;;;23.23;100.00;100157.31;5034098;28;45487;-70
2022/08/15 07:58:48;;;;;;;;;13.00;13.00;;;;;23.24;100.00;100157.25;5034743;28;45489;-72
2022/08/15 08:01:15;;;;;;;;;11.67;11.67;;;;;23.22;100.00;100166.34;5016756;28;45790;-70
2022/08/15 08:03:45;;;;;;;;;13.67;12.00;;;;;23.24;100.00;100153.69;5015549;28;45436;-70
2022/08/15 08:06:36;;;;;;;;;9.00;9.00;;;;;23.23;100.00;100163.59;5016718;28;45452;-70
2022/08/15 08:09:29;;;;;;;;;8.33;8.33;;;;;23.24;100.00;100162.63;5035254;28;45543;-70
2022/08/15 08:12:19;;;;;;;;;11.67;9.00;;;;;23.26;100.00;100166.09;5034526;28;46618;-71
2022/08/15 08:15:00;;;;;;;;;11.67;10.33;;;;;23.30;100.00;100157.88;5016189;28;45488;-72
2022/08/15 08:17:36;;;;;;;;;14.33;11.00;;;;;23.36;100.00;100157.53;5012768;28;45582;-71
2022/08/15 08:20:20;;;;;;;;;12.67;12.00;;;;;23.41;100.00;100161.72;5019681;28;45466;-69
2022/08/15 08:23:14;;;;;;;;;9.00;9.00;;;;;23.43;100.00;100165.22;5037603;28;47353;-70
2022/08/15 08:25:50;;;;;;;;;8.67;8.00;;;;;23.46;100.00;100165.06;5007400;28;45514;-71
2022/08/15 08:28:45;;;;;;;;;10.00;7.67;;;;;23.49;100.00;100154.13;5036908;28;45388;-68
2022/08/15 08:31:21;;;;;;;;;8.33;8.33;;;;;23.51;100.00;100154.91;5004104;28;45496;-70
2022/08/15 08:34:08;;;;;;;;;9.67;9.00;;;;;23.56;100.00;100156.50;5015354;28;46115;-71
2022/08/15 08:36:53;;;;;;;;;11.33;10.00;;;;;23.61;100.00;100159.81;5019521;28;45532;-69
2022/08/15 08:39:27;;;;;;;;;12.67;10.00;;;;;23.68;100.00;100154.03;5034843;28;45499;-69
2022/08/15 08:42:09;;;;;;;;;15.67;13.00;;;;;23.70;100.00;100146.75;5036499;28;45695;-72
2022/08/15 08:44:42;;;;;;;;;12.67;10.67;;;;;23.79;100.00;100151.63;5036713;28;46845;-69
2022/08/15 08:47:37;;;;;;;;;12.67;11.00;;;;;23.91;100.00;100157.28;5016529;28;45601;-70
2022/08/15 08:50:14;;;;;;;;;11.00;10.33;;;;;24.07;100.00;100165.41;5018451;28;45519;-70
2022/08/15 08:52:45;;;;;;;;;13.67;12.00;;;;;24.17;100.00;100167.50;5018324;28;46122;-71
2022/08/15 08:55:24;;;;;;;;;12.67;9.67;;;;;24.24;100.00;100170.75;5036141;28;47307;-69
2022/08/15 08:58:01;;;;;;;;;9.33;9.33;;;;;24.35;100.00;100171.06;5007739;28;45557;-68
2022/08/15 09:00:35;;;;;;;;;9.67;9.67;;;;;24.46;99.27;100165.03;5037653;28;45480;-69
2022/08/15 09:03:17;;;;;;;;;11.00;10.33;;;;;24.52;97.76;100168.25;5017637;28;45334;-68
2022/08/15 09:05:54;;;;;;;;;9.33;9.33;;;;;24.57;96.35;100168.00;5019530;28;46480;-70
2022/08/15 09:08:35;;;;;;;;;10.00;10.00;;;;;24.57;97.03;100165.28;5037794;28;45539;-68
2022/08/15 09:11:06;;;;;;;;;9.67;9.67;;;;;24.53;96.69;100156.50;5036064;28;46182;-69
2022/08/15 09:13:34;;;;;;;;;9.33;8.00;;;;;24.60;97.26;100158.84;4999817;28;45547;-69
2022/08/15 09:16:13;;;;;;;;;11.00;10.00;;;;;24.70;95.94;100169.00;5018323;28;46429;-69
2022/08/15 09:18:58;;;;;;;;;14.67;9.67;;;;;24.83;96.12;100172.75;5036188;28;45548;-71
2022/08/15 09:21:24;;;;;;;;;9.67;9.33;;;;;24.89;95.19;100162.56;5016312;28;45536;-71
2022/08/15 09:23:50;;;;;;;;;14.33;10.67;;;;;24.99;94.18;100174.56;5016329;28;57059;-69
2022/08/15 09:26:24;;;;;;;;;12.00;10.33;;;;;24.99;94.82;100156.50;5036419;28;46528;-70
2022/08/15 09:29:18;;;;;;;;;11.67;9.33;;;;;25.06;94.72;100165.16;5017614;28;45484;-71
2022/08/15 09:31:54;;;;;;;;;10.00;9.00;;;;;25.03;94.17;100151.78;5011279;28;45590;-69
2022/08/15 09:34:46;;;;;;;;;8.33;8.33;;;;;25.14;93.79;100157.47;5035865;28;45642;-70
2022/08/15 09:37:25;;;;;;;;;11.33;8.00;;;;;25.22;92.98;100152.47;5034535;28;47411;-73
2022/08/15 09:40:00;;;;;;;;;9.00;8.00;;;;;25.32;92.33;100158.19;5018791;28;45510;-71
2022/08/15 09:42:32;;;;;;;;;8.67;8.67;;;;;25.39;91.58;100164.94;5035849;28;45558;-73
2022/08/15 09:45:17;;;;;;;;;10.00;10.00;;;;;25.42;91.19;100166.59;5036960;28;45584;-73
2022/08/15 09:48:00;;;;;;;;;9.33;7.67;;;;;25.42;90.46;100162.06;5015515;28;45533;-71
2022/08/15 09:50:44;;;;;;;;;9.67;9.67;;;;;25.49;90.77;100155.31;5036898;28;45481;-72
2022/08/15 09:53:37;;;;;;;;;13.00;11.00;;;;;25.64;90.40;100155.31;5036536;28;45436;-71
2022/08/15 09:56:06;;;;;;;;;11.00;8.67;;;;;25.73;89.19;100152.94;5035506;28;45576;-70
2022/08/15 09:58:36;;;;;;;;;14.00;8.67;;;;;25.83;89.08;100154.13;5018413;28;46594;-70
2022/08/15 10:01:20;;;;;;;;;8.67;8.33;;;;;25.99;88.52;100156.69;5034141;28;45465;-70
2022/08/15 10:03:50;;;;;;;;;9.00;8.00;;;;;26.09;88.17;100157.84;5034434;28;45417;-71
2022/08/15 10:13:05;;;;;;;;;12.00;11.00;;;;;25.94;86.02;100155.25;5032773;28;45532;-71
2022/08/15 10:15:43;;;;;;;;;11.00;9.00;;;;;25.84;86.79;100149.56;5034076;28;45609;-71
2022/08/15 10:18:37;;;;;;;;;8.67;8.67;;;;;25.75;87.19;100151.00;5040105;28;46274;-71
2022/08/15 10:21:20;;;;;;;;;10.00;9.00;;;;;25.64;86.92;100150.78;4997366;28;46359;-72
2022/08/15 10:23:49;;;;;;;;;8.33;8.00;;;;;25.59;88.01;100142.09;5035713;28;45591;-70
2022/08/15 10:26:25;;;;;;;;;9.00;9.00;;;;;25.60;88.43;100152.81;5038145;28;45464;-71
2022/08/15 10:29:04;;;;;;;;;6.67;6.67;;;;;25.63;89.30;100165.28;5035209;28;45531;-71
2022/08/15 10:31:50;;;;;;;;;6.67;6.67;;;;;25.64;88.85;100167.00;5014751;28;46521;-72
2022/08/15 10:34:37;;;;;;;;;6.00;6.00;;;;;25.68;89.61;100162.28;5012557;28;45726;-72
2022/08/15 10:37:20;;;;;;;;;6.00;5.00;;;;;25.77;89.79;100159.03;5018823;28;45472;-71
2022/08/15 10:39:52;;;;;;;;;4.00;4.00;;;;;25.87;89.26;100157.47;5033088;28;45461;-72
2022/08/15 10:42:36;;;;;;;;;5.00;5.00;;;;;25.94;89.02;100156.16;5024100;28;46780;-71
2022/08/15 10:45:22;;;;;;;;;5.00;3.67;;;;;26.04;88.30;100162.69;5015841;28;45602;-71
2022/08/15 10:48:07;;;;;;;;;5.00;4.00;;;;;26.03;88.38;100155.53;5036777;28;45370;-72
2022/08/15 10:50:55;;;;;;;;;6.00;5.00;;;;;26.14;89.29;100162.97;5019325;28;45581;-71
2022/08/15 10:53:27;;;;;;;;;4.00;4.00;;;;;26.19;88.59;100168.94;5016676;28;45515;-71
2022/08/15 10:56:06;;;;;;;;;4.00;4.00;;;;;26.17;88.66;100165.50;5036580;28;45514;-72
2022/08/15 10:58:32;;;;;;;;;4.33;4.33;;;;;26.18;89.02;100167.22;5036601;28;45343;-72
2022/08/15 11:01:07;;;;;;;;;2.00;2.00;;;;;26.12;88.37;100168.47;5018282;28;45475;-71
2022/08/15 11:03:49;;;;;;;;;4.67;4.67;;;;;26.09;89.08;100160.56;5036298;28;47467;-71
2022/08/15 11:06:18;;;;;;;;;7.67;6.00;;;;;26.03;88.66;100160.94;5017040;28;45453;-70
2022/08/15 11:08:56;;;;;;;;;4.00;4.00;;;;;26.01;89.18;100153.91;5036424;28;45370;-71
2022/08/15 11:11:25;;;;;;;;;6.33;5.33;;;;;26.01;89.55;100157.47;5035657;28;45591;-72
2022/08/15 11:14:08;;;;;;;;;6.67;5.00;;;;;25.97;89.24;100165.88;5030822;28;46584;-72
2022/08/15 11:16:36;;;;;;;;;6.33;6.33;;;;;25.97;89.86;100163.19;5028399;28;45384;-71
2022/08/15 11:19:33;;;;;;;;;4.00;4.00;;;;;26.04;89.44;100170.78;5018484;28;46224;-71
2022/08/15 11:22:02;;;;;;;;;6.00;6.00;;;;;26.10;88.94;100173.13;5022421;28;45550;-72
2022/08/15 11:24:37;;;;;;;;;6.00;6.00;;;;;26.21;89.05;100171.59;5034216;28;46436;-71
2022/08/15 11:27:24;;;;;;;;;5.00;5.00;;;;;26.30;88.44;100177.25;5036132;28;45447;-72
2022/08/15 11:29:53;;;;;;;;;5.00;5.00;;;;;26.39;88.58;100175.78;5029191;28;45420;-72
2022/08/15 11:32:33;;;;;;;;;5.33;5.00;;;;;26.56;88.45;100175.56;5017145;28;45617;-71
2022/08/15 11:35:02;;;;;;;;;5.00;5.00;;;;;26.76;87.38;100174.25;5032228;28;47551;-70
2022/08/15 11:37:31;;;;;;;;;5.33;5.33;;;;;26.88;87.34;100170.72;5035524;28;45333;-72
2022/08/15 11:40:21;;;;;;;;;5.33;5.33;;;;;26.98;86.33;100172.81;5036197;28;45480;-71
2022/08/15 11:42:47;;;;;;;;;5.00;4.33;;;;;26.95;86.50;100176.59;5035111;28;45464;-71